sensor_id;sensor_type;location;lat;lon;timestamp;P1;durP1;ratioP1;P2;durP2;ratioP2
53545;SDS011;39432;51.902;10.844;2023-09-19T00:02:00;0.52;;;0.30;;
53545;SDS011;39432;51.902;10.844;2023-09-19T00:04:54;2.30;;;0.40;;
53545;SDS011;39432;51.902;10.844;2023-09-19T00:07:44;0.63;;;0.30;;
53545;SDS011;39432;51.902;10.844;2023-09-19T00:10:35;0.63;;;0.40;;
53545;SDS011;39432;51.902;10.844;2023-09-19T00:13:27;0.75;;;0.40;;
53545;SDS011;39432;51.902;10.844;2023-09-19T00:16:18;1.20;;;0.52;;
53545;SDS011;39432;51.902;10.844;2023-09-19T00:19:08;0.95;;;0.50;;
53545;SDS011;39432;51.902;10.844;2023-09-19T00:22:02;1.20;;;0.60;;
53545;SDS011;39432;51.902;10.844;2023-09-19T00:24:54;4.13;;;0.63;;
53545;SDS011;39432;51.902;10.844;2023-09-19T00:27:44;3.22;;;0.70;;
53545;SDS011;39432;51.902;10.844;2023-09-19T00:30:37;1.73;;;0.60;;
53545;SDS011;39432;51.902;10.844;2023-09-19T00:33:27;3.55;;;0.60;;
53545;SDS011;39432;51.902;10.844;2023-09-19T00:36:19;2.25;;;0.63;;
53545;SDS011;39432;51.902;10.844;2023-09-19T00:39:12;1.85;;;0.60;;
53545;SDS011;39432;51.902;10.844;2023-09-19T00:42:03;1.58;;;0.50;;
53545;SDS011;39432;51.902;10.844;2023-09-19T00:44:55;1.50;;;0.63;;
53545;SDS011;39432;51.902;10.844;2023-09-19T00:47:46;1.80;;;0.65;;
53545;SDS011;39432;51.902;10.844;2023-09-19T00:50:39;2.75;;;0.50;;
53545;SDS011;39432;51.902;10.844;2023-09-19T00:53:31;2.35;;;0.80;;
53545;SDS011;39432;51.902;10.844;2023-09-19T00:56:25;2.40;;;0.82;;
53545;SDS011;39432;51.902;10.844;2023-09-19T00:59:15;1.10;;;0.50;;
53545;SDS011;39432;51.902;10.844;2023-09-19T01:02:05;1.70;;;0.60;;
53545;SDS011;39432;51.902;10.844;2023-09-19T01:04:56;2.08;;;0.85;;
53545;SDS011;39432;51.902;10.844;2023-09-19T01:07:47;0.90;;;0.60;;
53545;SDS011;39432;51.902;10.844;2023-09-19T01:10:49;1.13;;;0.50;;
53545;SDS011;39432;51.902;10.844;2023-09-19T01:13:55;2.22;;;0.80;;
53545;SDS011;39432;51.902;10.844;2023-09-19T01:16:50;4.22;;;0.60;;
53545;SDS011;39432;51.902;10.844;2023-09-19T01:19:54;2.75;;;0.70;;
53545;SDS011;39432;51.902;10.844;2023-09-19T01:23:08;2.47;;;0.90;;
53545;SDS011;39432;51.902;10.844;2023-09-19T01:26:07;1.10;;;0.63;;
53545;SDS011;39432;51.902;10.844;2023-09-19T01:29:16;1.67;;;0.75;;
53545;SDS011;39432;51.902;10.844;2023-09-19T01:32:22;1.25;;;0.60;;
53545;SDS011;39432;51.902;10.844;2023-09-19T01:35:14;1.90;;;0.77;;
53545;SDS011;39432;51.902;10.844;2023-09-19T01:38:05;3.15;;;0.63;;
53545;SDS011;39432;51.902;10.844;2023-09-19T01:40:57;1.70;;;0.68;;
53545;SDS011;39432;51.902;10.844;2023-09-19T01:43:59;1.27;;;0.75;;
53545;SDS011;39432;51.902;10.844;2023-09-19T01:46:53;1.45;;;0.65;;
53545;SDS011;39432;51.902;10.844;2023-09-19T01:49:55;1.10;;;0.60;;
53545;SDS011;39432;51.902;10.844;2023-09-19T01:52:52;2.28;;;0.80;;
53545;SDS011;39432;51.902;10.844;2023-09-19T01:55:48;4.45;;;0.82;;
53545;SDS011;39432;51.902;10.844;2023-09-19T01:58:41;2.30;;;1.13;;
53545;SDS011;39432;51.902;10.844;2023-09-19T02:01:35;3.45;;;0.80;;
53545;SDS011;39432;51.902;10.844;2023-09-19T02:04:27;2.20;;;0.80;;
53545;SDS011;39432;51.902;10.844;2023-09-19T02:07:20;3.13;;;0.70;;
53545;SDS011;39432;51.902;10.844;2023-09-19T02:10:11;3.55;;;0.98;;
53545;SDS011;39432;51.902;10.844;2023-09-19T02:13:01;4.97;;;1.10;;
53545;SDS011;39432;51.902;10.844;2023-09-19T02:15:52;2.80;;;0.80;;
53545;SDS011;39432;51.902;10.844;2023-09-19T02:18:43;2.05;;;0.93;;
53545;SDS011;39432;51.902;10.844;2023-09-19T02:21:34;3.15;;;1.00;;
53545;SDS011;39432;51.902;10.844;2023-09-19T02:24:30;2.63;;;1.05;;
53545;SDS011;39432;51.902;10.844;2023-09-19T02:27:20;11.90;;;1.25;;
53545;SDS011;39432;51.902;10.844;2023-09-19T02:30:12;5.05;;;0.95;;
53545;SDS011;39432;51.902;10.844;2023-09-19T02:33:08;2.28;;;1.10;;
53545;SDS011;39432;51.902;10.844;2023-09-19T02:35:58;1.80;;;0.95;;
53545;SDS011;39432;51.902;10.844;2023-09-19T02:38:51;2.17;;;0.98;;
53545;SDS011;39432;51.902;10.844;2023-09-19T02:41:44;5.35;;;1.08;;
53545;SDS011;39432;51.902;10.844;2023-09-19T02:44:34;1.80;;;0.80;;
53545;SDS011;39432;51.902;10.844;2023-09-19T02:47:25;3.03;;;1.15;;
53545;SDS011;39432;51.902;10.844;2023-09-19T02:50:16;2.47;;;1.10;;
53545;SDS011;39432;51.902;10.844;2023-09-19T02:53:06;2.70;;;1.02;;
53545;SDS011;39432;51.902;10.844;2023-09-19T02:55:57;2.30;;;1.15;;
53545;SDS011;39432;51.902;10.844;2023-09-19T02:58:51;3.30;;;1.40;;
53545;SDS011;39432;51.902;10.844;2023-09-19T03:01:42;3.22;;;1.15;;
53545;SDS011;39432;51.902;10.844;2023-09-19T03:04:35;2.03;;;1.20;;
53545;SDS011;39432;51.902;10.844;2023-09-19T03:07:26;2.30;;;1.20;;
53545;SDS011;39432;51.902;10.844;2023-09-19T03:10:17;3.35;;;1.33;;
53545;SDS011;39432;51.902;10.844;2023-09-19T03:13:07;2.28;;;1.10;;
53545;SDS011;39432;51.902;10.844;2023-09-19T03:16:01;4.10;;;0.98;;
53545;SDS011;39432;51.902;10.844;2023-09-19T03:18:53;2.63;;;0.80;;
53545;SDS011;39432;51.902;10.844;2023-09-19T03:21:43;2.10;;;1.08;;
53545;SDS011;39432;51.902;10.844;2023-09-19T03:24:36;1.73;;;1.02;;
53545;SDS011;39432;51.902;10.844;2023-09-19T03:27:27;3.22;;;1.10;;
53545;SDS011;39432;51.902;10.844;2023-09-19T03:30:18;2.17;;;1.25;;
53545;SDS011;39432;51.902;10.844;2023-09-19T03:33:11;3.28;;;1.10;;
53545;SDS011;39432;51.902;10.844;2023-09-19T03:36:02;2.53;;;1.30;;
53545;SDS011;39432;51.902;10.844;2023-09-19T03:38:54;3.67;;;1.35;;
53545;SDS011;39432;51.902;10.844;2023-09-19T03:41:46;2.65;;;1.30;;
53545;SDS011;39432;51.902;10.844;2023-09-19T03:44:37;3.13;;;1.17;;
53545;SDS011;39432;51.902;10.844;2023-09-19T03:47:27;3.17;;;1.23;;
53545;SDS011;39432;51.902;10.844;2023-09-19T03:50:22;2.53;;;1.52;;
53545;SDS011;39432;51.902;10.844;2023-09-19T03:53:13;5.22;;;1.40;;
53545;SDS011;39432;51.902;10.844;2023-09-19T03:56:03;3.33;;;1.30;;
53545;SDS011;39432;51.902;10.844;2023-09-19T03:58:55;6.15;;;1.52;;
53545;SDS011;39432;51.902;10.844;2023-09-19T04:01:45;3.25;;;1.30;;
53545;SDS011;39432;51.902;10.844;2023-09-19T04:04:37;2.45;;;1.20;;
53545;SDS011;39432;51.902;10.844;2023-09-19T04:07:30;1.85;;;1.00;;
53545;SDS011;39432;51.902;10.844;2023-09-19T04:10:21;4.85;;;1.33;;
53545;SDS011;39432;51.902;10.844;2023-09-19T04:13:14;2.45;;;1.10;;
53545;SDS011;39432;51.902;10.844;2023-09-19T04:16:04;2.50;;;1.20;;
53545;SDS011;39432;51.902;10.844;2023-09-19T04:18:54;3.42;;;1.15;;
53545;SDS011;39432;51.902;10.844;2023-09-19T04:21:45;3.10;;;1.02;;
53545;SDS011;39432;51.902;10.844;2023-09-19T04:24:37;3.47;;;1.27;;
53545;SDS011;39432;51.902;10.844;2023-09-19T04:27:29;2.78;;;1.27;;
53545;SDS011;39432;51.902;10.844;2023-09-19T04:30:19;4.97;;;1.45;;
53545;SDS011;39432;51.902;10.844;2023-09-19T04:33:09;4.30;;;1.20;;
53545;SDS011;39432;51.902;10.844;2023-09-19T04:36:01;2.88;;;1.23;;
53545;SDS011;39432;51.902;10.844;2023-09-19T04:39:14;2.40;;;1.42;;
53545;SDS011;39432;51.902;10.844;2023-09-19T04:42:07;3.25;;;1.10;;
53545;SDS011;39432;51.902;10.844;2023-09-19T04:47:53;3.85;;;1.25;;
53545;SDS011;39432;51.902;10.844;2023-09-19T04:50:43;5.22;;;1.20;;
53545;SDS011;39432;51.902;10.844;2023-09-19T04:53:34;5.07;;;1.23;;
53545;SDS011;39432;51.902;10.844;2023-09-19T04:56:24;3.45;;;0.95;;
53545;SDS011;39432;51.902;10.844;2023-09-19T04:59:18;4.38;;;1.20;;
53545;SDS011;39432;51.902;10.844;2023-09-19T05:02:08;3.97;;;1.17;;
53545;SDS011;39432;51.902;10.844;2023-09-19T05:04:59;5.18;;;1.50;;
53545;SDS011;39432;51.902;10.844;2023-09-19T05:07:49;6.18;;;1.30;;
53545;SDS011;39432;51.902;10.844;2023-09-19T05:10:41;5.68;;;1.60;;
53545;SDS011;39432;51.902;10.844;2023-09-19T05:13:32;5.20;;;1.35;;
53545;SDS011;39432;51.902;10.844;2023-09-19T05:16:25;6.45;;;1.10;;
53545;SDS011;39432;51.902;10.844;2023-09-19T05:19:15;4.65;;;1.63;;
53545;SDS011;39432;51.902;10.844;2023-09-19T05:22:06;3.33;;;1.30;;
53545;SDS011;39432;51.902;10.844;2023-09-19T05:24:56;4.97;;;1.40;;
53545;SDS011;39432;51.902;10.844;2023-09-19T05:27:46;3.47;;;1.35;;
53545;SDS011;39432;51.902;10.844;2023-09-19T05:30:38;2.65;;;1.02;;
53545;SDS011;39432;51.902;10.844;2023-09-19T05:33:37;4.57;;;1.40;;
53545;SDS011;39432;51.902;10.844;2023-09-19T05:36:27;7.03;;;1.40;;
53545;SDS011;39432;51.902;10.844;2023-09-19T05:39:20;5.40;;;1.30;;
53545;SDS011;39432;51.902;10.844;2023-09-19T05:42:11;4.78;;;1.23;;
53545;SDS011;39432;51.902;10.844;2023-09-19T05:45:01;6.97;;;1.60;;
53545;SDS011;39432;51.902;10.844;2023-09-19T05:47:53;5.43;;;1.58;;
53545;SDS011;39432;51.902;10.844;2023-09-19T05:50:53;6.07;;;1.27;;
53545;SDS011;39432;51.902;10.844;2023-09-19T05:53:44;6.07;;;1.52;;
53545;SDS011;39432;51.902;10.844;2023-09-19T05:56:35;5.72;;;1.50;;
53545;SDS011;39432;51.902;10.844;2023-09-19T05:59:26;5.15;;;1.45;;
53545;SDS011;39432;51.902;10.844;2023-09-19T06:02:17;5.45;;;1.50;;
53545;SDS011;39432;51.902;10.844;2023-09-19T06:05:07;4.05;;;1.23;;
53545;SDS011;39432;51.902;10.844;2023-09-19T06:08:01;7.18;;;1.42;;
53545;SDS011;39432;51.902;10.844;2023-09-19T06:10:55;3.50;;;1.30;;
53545;SDS011;39432;51.902;10.844;2023-09-19T06:13:46;3.92;;;1.33;;
53545;SDS011;39432;51.902;10.844;2023-09-19T06:16:38;4.85;;;1.48;;
53545;SDS011;39432;51.902;10.844;2023-09-19T06:19:29;4.63;;;1.58;;
53545;SDS011;39432;51.902;10.844;2023-09-19T06:22:20;4.65;;;1.58;;
53545;SDS011;39432;51.902;10.844;2023-09-19T06:25:14;4.07;;;1.70;;
53545;SDS011;39432;51.902;10.844;2023-09-19T06:28:07;6.90;;;1.52;;
53545;SDS011;39432;51.902;10.844;2023-09-19T06:30:59;4.70;;;1.30;;
53545;SDS011;39432;51.902;10.844;2023-09-19T06:33:57;4.72;;;1.42;;
53545;SDS011;39432;51.902;10.844;2023-09-19T06:36:47;5.15;;;1.73;;
53545;SDS011;39432;51.902;10.844;2023-09-19T06:39:37;5.03;;;1.45;;
53545;SDS011;39432;51.902;10.844;2023-09-19T06:42:31;6.43;;;1.73;;
53545;SDS011;39432;51.902;10.844;2023-09-19T06:45:22;3.60;;;1.30;;
53545;SDS011;39432;51.902;10.844;2023-09-19T06:48:14;6.15;;;1.40;;
53545;SDS011;39432;51.902;10.844;2023-09-19T06:51:05;3.38;;;1.60;;
53545;SDS011;39432;51.902;10.844;2023-09-19T06:53:57;5.25;;;1.30;;
53545;SDS011;39432;51.902;10.844;2023-09-19T06:56:47;6.68;;;1.60;;
53545;SDS011;39432;51.902;10.844;2023-09-19T06:59:40;7.70;;;1.70;;
53545;SDS011;39432;51.902;10.844;2023-09-19T07:02:32;6.50;;;1.75;;
53545;SDS011;39432;51.902;10.844;2023-09-19T07:05:22;7.50;;;1.35;;
53545;SDS011;39432;51.902;10.844;2023-09-19T07:08:12;4.35;;;1.58;;
53545;SDS011;39432;51.902;10.844;2023-09-19T07:11:03;6.50;;;1.60;;
53545;SDS011;39432;51.902;10.844;2023-09-19T07:13:53;5.63;;;1.63;;
53545;SDS011;39432;51.902;10.844;2023-09-19T07:16:46;4.97;;;1.48;;
53545;SDS011;39432;51.902;10.844;2023-09-19T07:19:36;6.25;;;1.40;;
53545;SDS011;39432;51.902;10.844;2023-09-19T07:22:27;5.63;;;1.60;;
53545;SDS011;39432;51.902;10.844;2023-09-19T07:25:18;7.32;;;1.40;;
53545;SDS011;39432;51.902;10.844;2023-09-19T07:28:09;6.05;;;1.50;;
53545;SDS011;39432;51.902;10.844;2023-09-19T07:31:01;5.25;;;1.40;;
53545;SDS011;39432;51.902;10.844;2023-09-19T07:33:54;8.55;;;1.58;;
53545;SDS011;39432;51.902;10.844;2023-09-19T07:36:45;7.35;;;1.50;;
53545;SDS011;39432;51.902;10.844;2023-09-19T07:39:35;7.15;;;1.40;;
53545;SDS011;39432;51.902;10.844;2023-09-19T07:42:28;8.40;;;1.70;;
53545;SDS011;39432;51.902;10.844;2023-09-19T07:45:19;7.38;;;1.48;;
53545;SDS011;39432;51.902;10.844;2023-09-19T07:48:09;6.07;;;1.40;;
53545;SDS011;39432;51.902;10.844;2023-09-19T07:51:05;8.52;;;1.30;;
53545;SDS011;39432;51.902;10.844;2023-09-19T07:53:56;9.75;;;1.60;;
53545;SDS011;39432;51.902;10.844;2023-09-19T07:56:46;5.40;;;1.30;;
53545;SDS011;39432;51.902;10.844;2023-09-19T07:59:36;4.78;;;1.40;;
53545;SDS011;39432;51.902;10.844;2023-09-19T08:02:29;3.75;;;1.02;;
53545;SDS011;39432;51.902;10.844;2023-09-19T08:05:19;5.60;;;1.35;;
53545;SDS011;39432;51.902;10.844;2023-09-19T08:08:12;6.85;;;1.42;;
53545;SDS011;39432;51.902;10.844;2023-09-19T08:11:03;6.05;;;1.65;;
53545;SDS011;39432;51.902;10.844;2023-09-19T08:13:58;4.40;;;1.40;;
53545;SDS011;39432;51.902;10.844;2023-09-19T08:16:49;2.58;;;1.10;;
53545;SDS011;39432;51.902;10.844;2023-09-19T08:19:39;3.65;;;1.40;;
53545;SDS011;39432;51.902;10.844;2023-09-19T08:22:32;8.43;;;1.20;;
53545;SDS011;39432;51.902;10.844;2023-09-19T08:25:24;7.72;;;1.50;;
53545;SDS011;39432;51.902;10.844;2023-09-19T08:28:16;3.70;;;1.25;;
53545;SDS011;39432;51.902;10.844;2023-09-19T08:31:11;8.02;;;1.38;;
53545;SDS011;39432;51.902;10.844;2023-09-19T08:34:03;4.03;;;1.20;;
53545;SDS011;39432;51.902;10.844;2023-09-19T08:36:54;3.15;;;0.80;;
53545;SDS011;39432;51.902;10.844;2023-09-19T08:39:45;6.40;;;1.40;;
53545;SDS011;39432;51.902;10.844;2023-09-19T08:42:51;6.10;;;1.38;;
53545;SDS011;39432;51.902;10.844;2023-09-19T08:45:42;5.23;;;1.00;;
53545;SDS011;39432;51.902;10.844;2023-09-19T08:48:32;16.20;;;2.13;;
53545;SDS011;39432;51.902;10.844;2023-09-19T08:51:26;6.38;;;1.35;;
53545;SDS011;39432;51.902;10.844;2023-09-19T08:54:19;3.22;;;1.35;;
53545;SDS011;39432;51.902;10.844;2023-09-19T08:57:14;5.50;;;1.30;;
53545;SDS011;39432;51.902;10.844;2023-09-19T09:00:12;7.75;;;1.50;;
53545;SDS011;39432;51.902;10.844;2023-09-19T09:03:04;6.85;;;1.20;;
53545;SDS011;39432;51.902;10.844;2023-09-19T09:06:00;6.22;;;1.42;;
53545;SDS011;39432;51.902;10.844;2023-09-19T09:08:51;9.32;;;1.58;;
53545;SDS011;39432;51.902;10.844;2023-09-19T09:11:42;5.85;;;1.30;;
53545;SDS011;39432;51.902;10.844;2023-09-19T09:14:32;6.05;;;1.10;;
53545;SDS011;39432;51.902;10.844;2023-09-19T09:17:25;7.25;;;1.13;;
53545;SDS011;39432;51.902;10.844;2023-09-19T09:20:16;7.90;;;1.85;;
53545;SDS011;39432;51.902;10.844;2023-09-19T09:23:07;5.68;;;1.33;;
53545;SDS011;39432;51.902;10.844;2023-09-19T09:25:58;6.00;;;1.60;;
53545;SDS011;39432;51.902;10.844;2023-09-19T09:28:50;5.60;;;1.20;;
53545;SDS011;39432;51.902;10.844;2023-09-19T09:31:42;5.47;;;1.35;;
53545;SDS011;39432;51.902;10.844;2023-09-19T09:34:36;3.95;;;1.20;;
53545;SDS011;39432;51.902;10.844;2023-09-19T09:37:27;8.10;;;1.50;;
53545;SDS011;39432;51.902;10.844;2023-09-19T09:40:18;9.30;;;1.60;;
53545;SDS011;39432;51.902;10.844;2023-09-19T09:43:26;9.20;;;1.25;;
53545;SDS011;39432;51.902;10.844;2023-09-19T09:46:22;2.97;;;1.23;;
53545;SDS011;39432;51.902;10.844;2023-09-19T09:49:25;8.88;;;1.63;;
53545;SDS011;39432;51.902;10.844;2023-09-19T09:52:24;3.85;;;1.10;;
53545;SDS011;39432;51.902;10.844;2023-09-19T09:55:15;5.97;;;1.67;;
53545;SDS011;39432;51.902;10.844;2023-09-19T09:58:16;14.52;;;1.92;;
53545;SDS011;39432;51.902;10.844;2023-09-19T10:01:12;4.75;;;1.17;;
53545;SDS011;39432;51.902;10.844;2023-09-19T10:04:03;4.15;;;1.23;;
53545;SDS011;39432;51.902;10.844;2023-09-19T10:06:53;7.50;;;1.30;;
53545;SDS011;39432;51.902;10.844;2023-09-19T10:09:49;5.15;;;1.17;;
53545;SDS011;39432;51.902;10.844;2023-09-19T10:12:44;4.78;;;1.17;;
53545;SDS011;39432;51.902;10.844;2023-09-19T10:15:36;3.40;;;0.90;;
53545;SDS011;39432;51.902;10.844;2023-09-19T10:18:28;6.80;;;1.33;;
53545;SDS011;39432;51.902;10.844;2023-09-19T10:21:23;3.20;;;1.00;;
53545;SDS011;39432;51.902;10.844;2023-09-19T10:24:17;6.07;;;1.52;;
53545;SDS011;39432;51.902;10.844;2023-09-19T10:27:11;4.68;;;1.30;;
53545;SDS011;39432;51.902;10.844;2023-09-19T10:30:05;5.72;;;1.38;;
53545;SDS011;39432;51.902;10.844;2023-09-19T10:33:00;5.72;;;1.27;;
53545;SDS011;39432;51.902;10.844;2023-09-19T10:35:53;5.82;;;1.35;;
53545;SDS011;39432;51.902;10.844;2023-09-19T10:38:47;4.63;;;1.65;;
53545;SDS011;39432;51.902;10.844;2023-09-19T10:41:42;2.53;;;1.10;;
53545;SDS011;39432;51.902;10.844;2023-09-19T10:44:35;6.65;;;1.33;;
53545;SDS011;39432;51.902;10.844;2023-09-19T10:47:29;10.10;;;1.65;;
53545;SDS011;39432;51.902;10.844;2023-09-19T10:50:20;6.95;;;1.48;;
53545;SDS011;39432;51.902;10.844;2023-09-19T10:53:13;5.40;;;1.35;;
53545;SDS011;39432;51.902;10.844;2023-09-19T10:56:04;7.80;;;1.38;;
53545;SDS011;39432;51.902;10.844;2023-09-19T10:59:05;5.18;;;1.30;;
53545;SDS011;39432;51.902;10.844;2023-09-19T11:02:00;5.35;;;1.20;;
53545;SDS011;39432;51.902;10.844;2023-09-19T11:05:10;4.88;;;1.42;;
53545;SDS011;39432;51.902;10.844;2023-09-19T11:08:02;5.80;;;1.40;;
53545;SDS011;39432;51.902;10.844;2023-09-19T11:10:53;4.93;;;1.13;;
53545;SDS011;39432;51.902;10.844;2023-09-19T11:13:46;5.97;;;1.40;;
53545;SDS011;39432;51.902;10.844;2023-09-19T11:17:33;4.68;;;1.45;;
53545;SDS011;39432;51.902;10.844;2023-09-19T11:20:24;4.57;;;1.30;;
53545;SDS011;39432;51.902;10.844;2023-09-19T11:23:36;5.45;;;1.35;;
53545;SDS011;39432;51.902;10.844;2023-09-19T11:26:39;7.18;;;1.50;;
53545;SDS011;39432;51.902;10.844;2023-09-19T11:29:35;4.65;;;1.50;;
53545;SDS011;39432;51.902;10.844;2023-09-19T11:36:06;8.70;;;1.48;;
53545;SDS011;39432;51.902;10.844;2023-09-19T11:38:59;3.45;;;1.20;;
53545;SDS011;39432;51.902;10.844;2023-09-19T11:41:49;5.15;;;1.50;;
53545;SDS011;39432;51.902;10.844;2023-09-19T11:44:43;4.57;;;1.50;;
53545;SDS011;39432;51.902;10.844;2023-09-19T11:47:33;5.00;;;1.40;;
53545;SDS011;39432;51.902;10.844;2023-09-19T11:50:24;6.45;;;1.35;;
53545;SDS011;39432;51.902;10.844;2023-09-19T11:53:19;5.35;;;1.42;;
53545;SDS011;39432;51.902;10.844;2023-09-19T11:56:10;5.55;;;1.50;;
53545;SDS011;39432;51.902;10.844;2023-09-19T11:59:02;4.22;;;1.40;;
53545;SDS011;39432;51.902;10.844;2023-09-19T12:01:53;4.72;;;1.50;;
53545;SDS011;39432;51.902;10.844;2023-09-19T12:04:45;6.50;;;1.75;;
53545;SDS011;39432;51.902;10.844;2023-09-19T12:07:42;7.53;;;1.70;;
53545;SDS011;39432;51.902;10.844;2023-09-19T12:10:43;6.87;;;1.80;;
53545;SDS011;39432;51.902;10.844;2023-09-19T12:13:35;3.70;;;1.23;;
53545;SDS011;39432;51.902;10.844;2023-09-19T12:16:27;6.45;;;1.45;;
53545;SDS011;39432;51.902;10.844;2023-09-19T12:19:21;9.35;;;1.70;;
53545;SDS011;39432;51.902;10.844;2023-09-19T12:22:12;20.67;;;1.55;;
53545;SDS011;39432;51.902;10.844;2023-09-19T12:25:05;6.30;;;2.20;;
53545;SDS011;39432;51.902;10.844;2023-09-19T12:28:00;5.38;;;1.60;;
53545;SDS011;39432;51.902;10.844;2023-09-19T12:30:51;4.15;;;1.60;;
53545;SDS011;39432;51.902;10.844;2023-09-19T12:33:42;4.35;;;1.40;;
53545;SDS011;39432;51.902;10.844;2023-09-19T12:36:33;5.28;;;1.65;;
53545;SDS011;39432;51.902;10.844;2023-09-19T12:39:24;5.57;;;1.50;;
53545;SDS011;39432;51.902;10.844;2023-09-19T12:42:17;4.03;;;1.48;;
53545;SDS011;39432;51.902;10.844;2023-09-19T12:45:11;11.10;;;1.75;;
53545;SDS011;39432;51.902;10.844;2023-09-19T12:51:17;7.10;;;1.70;;
53545;SDS011;39432;51.902;10.844;2023-09-19T12:54:10;5.15;;;1.48;;
53545;SDS011;39432;51.902;10.844;2023-09-19T12:57:02;4.95;;;1.60;;
53545;SDS011;39432;51.902;10.844;2023-09-19T12:59:52;14.95;;;2.40;;
53545;SDS011;39432;51.902;10.844;2023-09-19T13:06:12;4.63;;;1.50;;
53545;SDS011;39432;51.902;10.844;2023-09-19T13:09:07;5.85;;;1.60;;
53545;SDS011;39432;51.902;10.844;2023-09-19T13:11:58;4.57;;;1.63;;
53545;SDS011;39432;51.902;10.844;2023-09-19T13:14:50;5.80;;;1.90;;
53545;SDS011;39432;51.902;10.844;2023-09-19T13:18:00;5.18;;;1.35;;
53545;SDS011;39432;51.902;10.844;2023-09-19T13:21:07;8.20;;;1.75;;
53545;SDS011;39432;51.902;10.844;2023-09-19T13:24:20;5.93;;;1.60;;
53545;SDS011;39432;51.902;10.844;2023-09-19T13:27:14;5.65;;;1.58;;
53545;SDS011;39432;51.902;10.844;2023-09-19T13:30:05;6.40;;;1.60;;
53545;SDS011;39432;51.902;10.844;2023-09-19T13:33:06;5.40;;;1.90;;
53545;SDS011;39432;51.902;10.844;2023-09-19T13:35:59;6.55;;;1.67;;
53545;SDS011;39432;51.902;10.844;2023-09-19T13:38:49;6.43;;;1.85;;
53545;SDS011;39432;51.902;10.844;2023-09-19T13:41:43;4.00;;;1.48;;
53545;SDS011;39432;51.902;10.844;2023-09-19T13:44:34;7.75;;;1.65;;
53545;SDS011;39432;51.902;10.844;2023-09-19T13:47:25;7.88;;;1.80;;
53545;SDS011;39432;51.902;10.844;2023-09-19T13:50:16;4.30;;;1.60;;
53545;SDS011;39432;51.902;10.844;2023-09-19T13:53:11;8.32;;;2.00;;
53545;SDS011;39432;51.902;10.844;2023-09-19T13:56:01;9.02;;;2.15;;
53545;SDS011;39432;51.902;10.844;2023-09-19T13:58:54;6.80;;;1.52;;
53545;SDS011;39432;51.902;10.844;2023-09-19T14:01:45;8.77;;;1.98;;
53545;SDS011;39432;51.902;10.844;2023-09-19T14:04:35;7.20;;;1.85;;
53545;SDS011;39432;51.902;10.844;2023-09-19T14:07:25;3.40;;;1.70;;
53545;SDS011;39432;51.902;10.844;2023-09-19T14:10:16;9.82;;;2.00;;
53545;SDS011;39432;51.902;10.844;2023-09-19T14:13:06;7.45;;;1.92;;
53545;SDS011;39432;51.902;10.844;2023-09-19T14:16:02;6.68;;;1.80;;
53545;SDS011;39432;51.902;10.844;2023-09-19T14:18:54;7.93;;;2.00;;
53545;SDS011;39432;51.902;10.844;2023-09-19T14:21:45;8.70;;;1.70;;
53545;SDS011;39432;51.902;10.844;2023-09-19T14:24:36;5.05;;;1.70;;
53545;SDS011;39432;51.902;10.844;2023-09-19T14:27:28;5.15;;;1.90;;
53545;SDS011;39432;51.902;10.844;2023-09-19T14:30:18;4.68;;;1.60;;
53545;SDS011;39432;51.902;10.844;2023-09-19T14:33:11;4.68;;;1.40;;
53545;SDS011;39432;51.902;10.844;2023-09-19T14:36:03;8.20;;;2.05;;
53545;SDS011;39432;51.902;10.844;2023-09-19T14:38:56;7.13;;;1.90;;
53545;SDS011;39432;51.902;10.844;2023-09-19T14:41:46;6.68;;;1.60;;
53545;SDS011;39432;51.902;10.844;2023-09-19T14:44:36;5.32;;;1.52;;
53545;SDS011;39432;51.902;10.844;2023-09-19T14:47:27;5.65;;;1.70;;
53545;SDS011;39432;51.902;10.844;2023-09-19T14:50:21;4.15;;;1.65;;
53545;SDS011;39432;51.902;10.844;2023-09-19T14:53:12;10.13;;;1.85;;
53545;SDS011;39432;51.902;10.844;2023-09-19T14:56:02;4.72;;;1.50;;
53545;SDS011;39432;51.902;10.844;2023-09-19T14:58:54;6.30;;;1.63;;
53545;SDS011;39432;51.902;10.844;2023-09-19T15:01:45;3.65;;;1.40;;
53545;SDS011;39432;51.902;10.844;2023-09-19T15:04:37;4.45;;;1.60;;
53545;SDS011;39432;51.902;10.844;2023-09-19T15:07:31;5.20;;;1.65;;
53545;SDS011;39432;51.902;10.844;2023-09-19T15:10:23;5.07;;;1.25;;
53545;SDS011;39432;51.902;10.844;2023-09-19T15:13:13;3.92;;;1.63;;
53545;SDS011;39432;51.902;10.844;2023-09-19T15:16:04;5.63;;;1.30;;
53545;SDS011;39432;51.902;10.844;2023-09-19T15:18:56;5.90;;;1.50;;
53545;SDS011;39432;51.902;10.844;2023-09-19T15:21:46;4.35;;;1.63;;
53545;SDS011;39432;51.902;10.844;2023-09-19T15:24:39;5.53;;;1.27;;
53545;SDS011;39432;51.902;10.844;2023-09-19T15:27:30;27.98;;;3.17;;
53545;SDS011;39432;51.902;10.844;2023-09-19T15:30:20;5.68;;;1.20;;
53545;SDS011;39432;51.902;10.844;2023-09-19T15:33:11;3.15;;;1.00;;
53545;SDS011;39432;51.902;10.844;2023-09-19T15:36:02;8.10;;;1.30;;
53545;SDS011;39432;51.902;10.844;2023-09-19T15:38:57;22.73;;;2.22;;
53545;SDS011;39432;51.902;10.844;2023-09-19T15:41:53;4.65;;;1.30;;
53545;SDS011;39432;51.902;10.844;2023-09-19T15:44:43;5.68;;;1.45;;
53545;SDS011;39432;51.902;10.844;2023-09-19T15:47:36;3.90;;;1.10;;
53545;SDS011;39432;51.902;10.844;2023-09-19T15:50:27;3.85;;;1.30;;
53545;SDS011;39432;51.902;10.844;2023-09-19T15:53:18;4.57;;;1.30;;
53545;SDS011;39432;51.902;10.844;2023-09-19T15:56:08;7.22;;;1.15;;
53545;SDS011;39432;51.902;10.844;2023-09-19T15:59:02;3.45;;;1.42;;
53545;SDS011;39432;51.902;10.844;2023-09-19T16:01:54;3.97;;;1.70;;
53545;SDS011;39432;51.902;10.844;2023-09-19T16:04:45;5.28;;;1.70;;
53545;SDS011;39432;51.902;10.844;2023-09-19T16:07:35;6.15;;;1.35;;
53545;SDS011;39432;51.902;10.844;2023-09-19T16:10:26;4.03;;;1.10;;
53545;SDS011;39432;51.902;10.844;2023-09-19T16:13:16;4.35;;;1.40;;
53545;SDS011;39432;51.902;10.844;2023-09-19T16:16:09;4.97;;;1.02;;
53545;SDS011;39432;51.902;10.844;2023-09-19T16:19:03;3.42;;;1.23;;
53545;SDS011;39432;51.902;10.844;2023-09-19T16:21:58;3.53;;;1.17;;
53545;SDS011;39432;51.902;10.844;2023-09-19T16:24:49;4.07;;;1.20;;
53545;SDS011;39432;51.902;10.844;2023-09-19T16:27:39;3.00;;;1.00;;
53545;SDS011;39432;51.902;10.844;2023-09-19T16:30:31;5.07;;;1.33;;
53545;SDS011;39432;51.902;10.844;2023-09-19T16:33:24;7.07;;;1.50;;
53545;SDS011;39432;51.902;10.844;2023-09-19T16:36:15;4.10;;;1.00;;
53545;SDS011;39432;51.902;10.844;2023-09-19T16:39:07;5.60;;;1.73;;
53545;SDS011;39432;51.902;10.844;2023-09-19T16:41:58;8.90;;;1.35;;
53545;SDS011;39432;51.902;10.844;2023-09-19T16:45:01;3.03;;;1.20;;
53545;SDS011;39432;51.902;10.844;2023-09-19T16:47:52;4.25;;;1.17;;
53545;SDS011;39432;51.902;10.844;2023-09-19T16:50:46;4.68;;;1.20;;
53545;SDS011;39432;51.902;10.844;2023-09-19T16:53:38;7.43;;;1.23;;
53545;SDS011;39432;51.902;10.844;2023-09-19T16:56:32;4.10;;;1.20;;
53545;SDS011;39432;51.902;10.844;2023-09-19T16:59:24;5.07;;;1.35;;
53545;SDS011;39432;51.902;10.844;2023-09-19T17:02:15;4.90;;;1.30;;
53545;SDS011;39432;51.902;10.844;2023-09-19T17:05:06;5.55;;;1.15;;
53545;SDS011;39432;51.902;10.844;2023-09-19T17:08:01;4.30;;;1.50;;
53545;SDS011;39432;51.902;10.844;2023-09-19T17:10:59;5.65;;;1.45;;
53545;SDS011;39432;51.902;10.844;2023-09-19T17:13:51;6.28;;;1.60;;
53545;SDS011;39432;51.902;10.844;2023-09-19T17:16:44;7.22;;;1.33;;
53545;SDS011;39432;51.902;10.844;2023-09-19T17:19:36;4.45;;;1.63;;